Weather at Lora Airport

Public forecast

Using degrees Celsius for public forecast. Weather courtesy of forecast.io.

Closest aviation weather report (METAR) to Lora Airport

Closest report is Frank Pais International Airport, 23.7 nm (44.0 km) SSE. Retrieved 2021/06/23 19:50 UTC (49 minutes ago):

MUHG 231950Z 09013KT 9000 SCT045 BKN225 30/23 Q1016

Closest aviation forecast (TAF) to Lora Airport

Closest forecast is Frank Pais International Airport, 23.7 nm (44.0 km) SSE. Retrieved 2021/06/23 18:03 UTC (3 hours ago):

TAF MUHG 231700Z 2318/2418 08011KT 9000 SCT030 TEMPO 2318/2324 4000 TSRA SCT018CB BKN020 BECMG 2401/2403 07006KT